createdAt,value
2018-12-23T00:01:57.394Z,68.03
2018-12-23T00:06:01.393Z,68.24
2018-12-23T00:10:05.151Z,68.68
2018-12-23T00:14:08.735Z,68.97
2018-12-23T00:18:12.263Z,69.43
2018-12-23T00:22:15.822Z,69.40
2018-12-23T00:26:19.368Z,69.58
2018-12-23T00:30:23.213Z,69.08
2018-12-23T00:34:26.680Z,68.92
2018-12-23T00:38:30.231Z,69.23
2018-12-23T00:42:33.729Z,69.66
2018-12-23T00:46:37.215Z,69.98
2018-12-23T00:50:40.848Z,69.27
2018-12-23T00:54:44.440Z,69.68
2018-12-23T00:58:48.104Z,69.07
2018-12-23T01:02:51.719Z,69.50
2018-12-23T01:06:55.296Z,70.24
2018-12-23T01:10:58.795Z,69.44
2018-12-23T01:15:02.256Z,70.13
2018-12-23T01:19:05.860Z,70.01
2018-12-23T01:23:09.304Z,69.99
2018-12-23T01:27:12.885Z,69.84
2018-12-23T01:31:16.347Z,69.14
2018-12-23T01:35:19.868Z,69.20
2018-12-23T01:39:23.479Z,69.80
2018-12-23T01:43:27.054Z,69.52
2018-12-23T01:47:30.531Z,69.44
2018-12-23T01:51:34.008Z,69.14
2018-12-23T01:55:37.497Z,69.42
2018-12-23T01:59:41.006Z,68.91
2018-12-23T02:03:44.722Z,68.47
2018-12-23T02:07:48.213Z,69.60
2018-12-23T02:11:51.700Z,68.97
2018-12-23T02:15:55.215Z,68.87
2018-12-23T02:19:58.875Z,69.69
2018-12-23T02:24:02.370Z,69.49
2018-12-23T02:28:05.856Z,69.52
2018-12-23T02:32:09.500Z,69.10
2018-12-23T02:36:12.962Z,69.06
2018-12-23T02:40:16.551Z,69.06
2018-12-23T02:44:20.656Z,69.23
2018-12-23T02:48:24.367Z,68.62
2018-12-23T02:52:27.974Z,68.78
2018-12-23T02:56:31.633Z,68.81
2018-12-23T03:00:35.102Z,68.41
2018-12-23T03:04:38.598Z,68.62
2018-12-23T03:08:42.260Z,68.07
2018-12-23T03:12:45.974Z,68.98
2018-12-23T03:16:49.518Z,68.47
2018-12-23T03:20:53.032Z,69.07
2018-12-23T03:24:56.520Z,68.64
2018-12-23T03:29:00.005Z,68.68
2018-12-23T03:33:03.577Z,68.11
2018-12-23T03:37:07.036Z,68.27
2018-12-23T03:41:10.564Z,68.63
2018-12-23T03:45:14.014Z,68.41
2018-12-23T03:49:17.943Z,68.37
2018-12-23T03:53:21.516Z,68.26
2018-12-23T03:57:25.092Z,68.12
2018-12-23T04:01:28.547Z,68.09
2018-12-23T04:05:32.190Z,69.06
2018-12-23T04:09:35.737Z,68.91
2018-12-23T04:13:39.170Z,69.39
2018-12-23T04:17:42.624Z,69.61
2018-12-23T04:22:33.759Z,69.32
2018-12-23T04:26:38.466Z,69.49
2018-12-23T04:30:43.207Z,69.69
2018-12-23T04:34:47.916Z,69.79
2018-12-23T04:38:52.609Z,69.95
2018-12-23T04:42:57.352Z,69.98
2018-12-23T04:47:02.009Z,70.08
2018-12-23T04:51:06.720Z,70.22
2018-12-23T04:55:11.649Z,70.19
2018-12-23T04:59:16.386Z,70.13
2018-12-23T05:03:21.026Z,70.12
2018-12-23T05:07:25.743Z,70.10
2018-12-23T05:11:30.540Z,69.95
2018-12-23T05:15:35.603Z,69.74
2018-12-23T05:19:40.326Z,69.71
2018-12-23T05:23:45.001Z,69.71
2018-12-23T05:27:49.722Z,69.62
2018-12-23T05:31:54.431Z,69.35
2018-12-23T05:35:59.164Z,69.34
2018-12-23T05:40:03.818Z,68.88
2018-12-23T05:44:08.527Z,68.83
2018-12-23T05:48:13.231Z,69.60
2018-12-23T05:52:17.941Z,69.87
2018-12-23T05:56:22.652Z,70.21
2018-12-23T06:00:27.295Z,70.69
2018-12-23T06:04:31.978Z,70.95
2018-12-23T06:08:36.662Z,71.35
2018-12-23T06:12:41.372Z,71.33
2018-12-23T06:16:46.049Z,71.67
2018-12-23T06:20:50.716Z,71.68
2018-12-23T06:24:55.437Z,71.78
2018-12-23T06:29:00.201Z,71.93
2018-12-23T06:33:04.932Z,71.98
2018-12-23T06:37:10.427Z,71.70
2018-12-23T06:41:16.130Z,71.48
2018-12-23T06:45:20.802Z,71.32
2018-12-23T06:49:25.523Z,71.10
2018-12-23T06:53:30.174Z,70.80
2018-12-23T06:57:34.913Z,70.69
2018-12-23T07:01:39.646Z,70.51
2018-12-23T07:05:44.683Z,70.35
2018-12-23T07:09:49.428Z,70.18
2018-12-23T07:13:54.119Z,69.69
2018-12-23T07:17:58.774Z,69.76
2018-12-23T07:22:03.537Z,69.48
2018-12-23T07:26:08.239Z,69.24
2018-12-23T07:30:12.934Z,69.00
2018-12-23T07:34:17.650Z,68.75
2018-12-23T07:38:22.359Z,68.84
2018-12-23T07:42:27.076Z,68.63
2018-12-23T07:46:31.785Z,68.15
2018-12-23T07:50:36.505Z,68.22
2018-12-23T07:54:41.214Z,68.04
2018-12-23T07:58:45.909Z,68.25
2018-12-23T08:02:50.706Z,68.05
2018-12-23T08:06:55.412Z,68.11
2018-12-23T08:11:00.114Z,67.89
2018-12-23T08:15:04.772Z,67.43
2018-12-23T08:19:09.464Z,67.38
2018-12-23T08:23:14.170Z,67.27
2018-12-23T08:27:18.862Z,66.60
2018-12-23T08:31:23.583Z,66.20
2018-12-23T08:35:28.216Z,66.60
2018-12-23T08:39:32.924Z,66.62
2018-12-23T08:43:37.639Z,66.72
2018-12-23T08:47:42.389Z,66.69
2018-12-23T08:51:47.072Z,66.50
2018-12-23T08:55:52.208Z,66.30
2018-12-23T08:59:56.918Z,65.96
2018-12-23T09:04:01.661Z,65.30
2018-12-23T09:12:43.097Z,64.67
2018-12-23T09:16:47.855Z,64.22
2018-12-23T09:20:52.511Z,63.64
2018-12-23T09:24:57.248Z,62.21
2018-12-23T09:29:01.965Z,61.87
2018-12-23T09:33:06.663Z,62.35
2018-12-23T09:37:11.380Z,61.34
2018-12-23T09:41:16.093Z,62.14
2018-12-23T09:45:20.777Z,61.66
2018-12-23T09:49:25.579Z,62.44
2018-12-23T09:53:30.256Z,62.60
2018-12-23T09:57:35.035Z,62.51
2018-12-23T10:01:39.752Z,62.50
2018-12-23T10:05:44.429Z,62.64
2018-12-23T10:09:49.175Z,62.68
2018-12-23T10:13:53.914Z,62.77
2018-12-23T10:17:58.626Z,62.42
2018-12-23T10:22:03.318Z,61.74
2018-12-23T10:26:08.023Z,61.35
2018-12-23T10:30:12.719Z,61.02
2018-12-23T10:34:17.420Z,61.42
2018-12-23T10:38:42.417Z,60.94
2018-12-23T10:42:47.207Z,60.32
2018-12-23T10:46:51.923Z,60.29
2018-12-23T10:50:56.577Z,60.97
2018-12-23T10:55:01.268Z,60.55
2018-12-23T10:59:06.423Z,61.14
2018-12-23T11:03:11.126Z,61.14
2018-12-23T11:07:15.826Z,61.51
2018-12-23T11:11:20.587Z,61.65
2018-12-23T11:15:25.326Z,61.41
2018-12-23T11:19:30.048Z,61.85
2018-12-23T11:23:35.219Z,62.25
2018-12-23T11:27:39.911Z,62.36
2018-12-23T11:31:44.605Z,63.00
2018-12-23T11:35:49.350Z,63.35
2018-12-23T11:39:54.062Z,63.57
2018-12-23T11:43:58.734Z,63.72
2018-12-23T11:48:03.436Z,63.63
2018-12-23T11:52:08.140Z,63.76
2018-12-23T11:56:12.861Z,63.87
2018-12-23T12:00:17.567Z,64.14
2018-12-23T12:04:22.279Z,64.46
2018-12-23T12:08:27.157Z,64.76
2018-12-23T12:12:31.851Z,64.88
2018-12-23T12:16:36.583Z,64.68
2018-12-23T12:20:41.289Z,63.31
2018-12-23T12:24:46.025Z,64.05
2018-12-23T12:28:50.738Z,63.61
2018-12-23T12:32:55.384Z,63.57
2018-12-23T12:37:00.128Z,63.69
2018-12-23T12:41:04.862Z,63.59
2018-12-23T12:45:09.614Z,63.36
2018-12-23T12:49:14.312Z,63.26
2018-12-23T12:53:18.973Z,62.91
2018-12-23T12:57:23.780Z,63.28
2018-12-23T13:01:28.466Z,63.49
2018-12-23T13:05:33.187Z,63.58
2018-12-23T13:09:37.838Z,63.88
2018-12-23T13:13:42.542Z,64.10
2018-12-23T13:17:47.448Z,64.14
2018-12-23T13:21:52.212Z,64.14
2018-12-23T13:25:56.927Z,64.09
2018-12-23T13:30:01.683Z,64.11
2018-12-23T13:34:06.415Z,64.13
2018-12-23T13:38:11.076Z,64.21
2018-12-23T13:42:53.622Z,64.15
2018-12-23T13:47:36.427Z,64.29
2018-12-23T13:52:18.948Z,64.47
2018-12-23T13:57:01.491Z,64.39
2018-12-23T14:01:31.232Z,64.51
2018-12-23T14:06:13.721Z,64.68
2018-12-23T14:10:56.276Z,64.71
2018-12-23T14:15:00.952Z,64.62
2018-12-23T14:19:05.703Z,64.71
2018-12-23T14:23:10.398Z,64.82
2018-12-23T14:27:15.224Z,65.03
2018-12-23T14:31:19.911Z,65.20
2018-12-23T14:35:24.912Z,65.27
2018-12-23T14:39:29.723Z,65.43
2018-12-23T14:43:34.433Z,65.52
2018-12-23T14:47:40.403Z,65.63
2018-12-23T14:51:45.622Z,65.69
2018-12-23T14:55:50.310Z,65.81
2018-12-23T14:59:55.042Z,65.81
2018-12-23T15:03:59.733Z,65.84
2018-12-23T15:08:04.476Z,65.83
2018-12-23T15:12:09.209Z,65.91
2018-12-23T15:16:13.874Z,66.01
2018-12-23T15:20:18.587Z,66.08
2018-12-23T15:24:23.339Z,66.10
2018-12-23T15:28:27.993Z,66.29
2018-12-23T15:32:32.737Z,66.40
2018-12-23T15:36:37.489Z,66.46
2018-12-23T15:40:42.245Z,66.36
2018-12-23T15:44:47.281Z,66.33
2018-12-23T15:48:52.198Z,66.32
2018-12-23T15:52:56.936Z,66.34
2018-12-23T15:57:01.658Z,66.22
2018-12-23T16:01:06.393Z,66.25
2018-12-23T16:05:11.111Z,66.30
2018-12-23T16:09:15.793Z,66.39
2018-12-23T16:13:20.506Z,66.36
2018-12-23T16:17:25.223Z,66.32
2018-12-23T16:21:29.888Z,66.32
2018-12-23T16:25:34.622Z,66.30
2018-12-23T16:29:39.305Z,66.39
2018-12-23T16:33:44.097Z,66.34
2018-12-23T16:37:49.111Z,66.37
2018-12-23T16:41:53.801Z,66.35
2018-12-23T16:45:58.532Z,66.31
2018-12-23T16:50:03.717Z,66.38
2018-12-23T16:54:08.355Z,66.43
2018-12-23T16:58:13.092Z,66.52
2018-12-23T17:02:17.786Z,66.57
2018-12-23T17:06:22.518Z,66.62
2018-12-23T17:10:27.254Z,66.59
2018-12-23T17:14:31.999Z,66.61
2018-12-23T17:18:36.711Z,66.74
2018-12-23T17:22:41.415Z,66.68
2018-12-23T17:26:46.149Z,66.71
2018-12-23T17:30:51.000Z,66.78
2018-12-23T17:34:55.672Z,66.93
2018-12-23T17:39:00.400Z,66.84
2018-12-23T17:43:05.130Z,66.86
2018-12-23T17:47:09.852Z,66.83
2018-12-23T17:51:14.612Z,66.99
2018-12-23T17:55:19.348Z,66.94
2018-12-23T17:59:24.098Z,66.94
2018-12-23T18:03:28.872Z,67.05
2018-12-23T18:07:33.611Z,67.08
2018-12-23T18:11:38.348Z,67.15
2018-12-23T18:15:43.140Z,67.24
2018-12-23T18:19:47.878Z,67.37
2018-12-23T18:23:52.618Z,67.60
2018-12-23T18:27:57.296Z,67.93
2018-12-23T18:32:02.021Z,68.28
2018-12-23T18:36:06.745Z,68.71
2018-12-23T18:40:11.525Z,69.05
2018-12-23T18:44:16.306Z,69.45
2018-12-23T18:48:20.979Z,69.78
2018-12-23T18:52:25.728Z,69.94
2018-12-23T18:57:06.911Z,69.97
2018-12-23T19:01:11.956Z,70.15
2018-12-23T19:05:16.733Z,70.39
2018-12-23T19:09:59.299Z,70.64
2018-12-23T19:14:41.834Z,71.03
2018-12-23T19:19:24.392Z,71.29
2018-12-23T19:23:55.310Z,71.58
2018-12-23T19:28:32.250Z,71.97
2018-12-23T19:33:18.153Z,72.13
2018-12-23T19:38:00.779Z,72.49
2018-12-23T19:42:43.368Z,72.84
2018-12-23T19:47:25.896Z,73.23
2018-12-23T19:52:08.476Z,73.56
2018-12-23T19:56:51.026Z,73.87
2018-12-23T20:01:18.878Z,73.87
2018-12-23T20:06:01.476Z,73.93
2018-12-23T20:10:44.007Z,73.98
2018-12-23T20:15:26.602Z,74.06
2018-12-23T20:19:53.716Z,74.06
2018-12-23T20:24:36.297Z,74.21
2018-12-23T20:29:18.871Z,74.16
2018-12-23T20:34:02.626Z,74.15
2018-12-23T20:38:34.800Z,74.26
2018-12-23T20:43:17.372Z,74.33
2018-12-23T20:48:00.056Z,74.38
2018-12-23T20:52:33.806Z,74.54
2018-12-23T20:57:10.636Z,74.67
2018-12-23T21:01:53.244Z,74.78
2018-12-23T21:06:35.844Z,74.98
2018-12-23T21:11:18.427Z,75.12
2018-12-23T21:16:01.313Z,75.31
2018-12-23T21:20:44.607Z,75.48
2018-12-23T21:25:27.250Z,75.61
2018-12-23T21:30:09.851Z,75.67
2018-12-23T21:34:52.451Z,75.83
2018-12-23T21:39:34.923Z,75.98
2018-12-23T21:44:17.456Z,75.76
2018-12-23T21:49:00.044Z,76.06
2018-12-23T21:53:42.599Z,76.87
2018-12-23T21:57:57.593Z,76.37
2018-12-23T22:02:40.082Z,76.60
2018-12-23T22:07:22.621Z,76.95
2018-12-23T22:11:50.970Z,77.24
2018-12-23T22:20:39.781Z,77.78
2018-12-23T22:24:44.487Z,77.54
2018-12-23T22:28:49.229Z,77.85
2018-12-23T22:32:53.906Z,77.98
2018-12-23T22:36:58.658Z,78.01
2018-12-23T22:41:07.466Z,78.26
2018-12-23T22:45:12.146Z,78.52
2018-12-23T22:49:16.862Z,78.50
2018-12-23T22:53:21.577Z,78.84
2018-12-23T22:57:26.297Z,78.96
2018-12-23T23:01:30.973Z,78.84
2018-12-23T23:05:35.712Z,78.82
2018-12-23T23:09:40.422Z,78.96
2018-12-23T23:13:45.090Z,79.03
2018-12-23T23:17:49.828Z,79.07
2018-12-23T23:21:54.543Z,78.88
2018-12-23T23:25:59.291Z,78.93
2018-12-23T23:34:47.891Z,79.10
2018-12-23T23:43:16.191Z,79.43
2018-12-23T23:47:20.876Z,79.39
2018-12-23T23:51:25.588Z,79.55
2018-12-23T23:55:30.307Z,79.47
2018-12-23T23:59:34.959Z,79.52
